DTM weather

Dortmund Airport
Dortmund, North Rhine-Westphalia, Germany

Public forecast

Using degrees Celsius for public forecast. Weather courtesy of forecast.io.

Current aviation weather report (METAR) for Dortmund Airport

Retrieved 2019/11/20 02:20 UTC (37 minutes ago):

EDLW 200220Z AUTO 16008KT 4700 // BKN017/// OVC026/// 00/00 Q1019

Aviation forecast (TAF) for Dortmund Airport

Retrieved 2019/11/19 21:00 UTC (6 hours ago):

TAF TAF EDLW 192152Z 1921/2018 CNL